createdAt,value
2018-07-24T00:00:17.110Z,19.60
2018-07-24T00:02:44.781Z,19.50
2018-07-24T00:05:12.478Z,19.50
2018-07-24T00:07:40.151Z,19.50
2018-07-24T00:10:07.828Z,19.50
2018-07-24T00:12:35.510Z,19.50
2018-07-24T00:15:04.128Z,19.40
2018-07-24T00:17:31.794Z,19.50
2018-07-24T00:19:59.467Z,19.40
2018-07-24T00:22:27.164Z,19.50
2018-07-24T00:24:54.854Z,19.40
2018-07-24T00:27:22.521Z,19.40
2018-07-24T00:29:50.186Z,19.40
2018-07-24T00:32:17.933Z,19.30
2018-07-24T00:34:45.566Z,19.40
2018-07-24T00:37:13.229Z,19.30
2018-07-24T00:39:40.911Z,19.30
2018-07-24T00:42:08.657Z,19.20
2018-07-24T00:44:36.298Z,19.30
2018-07-24T00:47:04.459Z,19.20
2018-07-24T00:49:32.172Z,19.30
2018-07-24T00:51:59.827Z,19.20
2018-07-24T00:54:27.470Z,19.20
2018-07-24T00:56:55.123Z,19.20
2018-07-24T00:59:22.795Z,19.20
2018-07-24T01:01:50.471Z,19.20
2018-07-24T01:04:18.107Z,19.10
2018-07-24T01:06:45.795Z,19.20
2018-07-24T01:09:13.486Z,19.10
2018-07-24T01:11:41.280Z,19.10
2018-07-24T01:14:09.474Z,19.10
2018-07-24T01:16:37.147Z,19.00
2018-07-24T01:19:04.850Z,19.00
2018-07-24T01:21:32.481Z,19.00
2018-07-24T01:24:00.155Z,19.00
2018-07-24T01:26:27.866Z,19.00
2018-07-24T01:28:56.531Z,18.90
2018-07-24T01:31:24.237Z,18.90
2018-07-24T01:33:51.990Z,18.90
2018-07-24T01:36:19.641Z,18.90
2018-07-24T01:38:47.292Z,18.90
2018-07-24T01:41:14.980Z,18.80
2018-07-24T01:43:43.259Z,18.80
2018-07-24T01:46:10.975Z,18.80
2018-07-24T01:48:38.646Z,18.70
2018-07-24T01:51:07.029Z,18.70
2018-07-24T01:53:34.678Z,18.70
2018-07-24T01:56:02.410Z,18.70
2018-07-24T01:58:30.072Z,18.70
2018-07-24T02:01:01.933Z,18.70
2018-07-24T02:03:30.036Z,18.70
2018-07-24T02:05:57.718Z,18.70
2018-07-24T02:08:25.419Z,18.70
2018-07-24T02:10:53.097Z,18.60
2018-07-24T02:13:20.791Z,18.60
2018-07-24T02:15:48.465Z,18.60
2018-07-24T02:18:16.122Z,18.60
2018-07-24T02:20:43.879Z,18.60
2018-07-24T02:23:11.599Z,18.50
2018-07-24T02:25:39.282Z,18.50
2018-07-24T02:28:07.450Z,18.50
2018-07-24T02:30:35.177Z,18.50
2018-07-24T02:33:02.918Z,18.50
2018-07-24T02:35:30.618Z,18.50
2018-07-24T02:37:58.317Z,18.50
2018-07-24T02:40:25.975Z,18.50
2018-07-24T02:42:53.651Z,18.40
2018-07-24T02:45:21.328Z,18.40
2018-07-24T02:47:49.036Z,18.40
2018-07-24T02:50:16.702Z,18.40
2018-07-24T02:52:44.532Z,18.40
2018-07-24T02:55:12.226Z,18.40
2018-07-24T02:57:40.045Z,18.40
2018-07-24T03:00:07.748Z,18.40
2018-07-24T03:02:35.425Z,18.30
2018-07-24T03:05:03.298Z,18.40
2018-07-24T03:07:30.965Z,18.30
2018-07-24T03:09:58.659Z,18.30
2018-07-24T03:12:26.335Z,18.30
2018-07-24T03:14:54.016Z,18.20
2018-07-24T03:17:21.695Z,18.20
2018-07-24T03:19:49.382Z,18.20
2018-07-24T03:22:17.070Z,18.20
2018-07-24T03:24:44.943Z,18.20
2018-07-24T03:27:12.626Z,18.10
2018-07-24T03:29:40.286Z,18.10
2018-07-24T03:32:07.981Z,18.20
2018-07-24T03:34:35.768Z,18.20
2018-07-24T03:37:03.454Z,18.10
2018-07-24T03:39:31.613Z,18.10
2018-07-24T03:41:59.282Z,18.10
2018-07-24T03:44:26.995Z,18.00
2018-07-24T03:46:54.679Z,18.10
2018-07-24T03:49:22.321Z,18.10
2018-07-24T03:51:49.985Z,18.20
2018-07-24T03:54:17.698Z,18.10
2018-07-24T03:56:45.450Z,18.20
2018-07-24T03:59:13.094Z,18.30
2018-07-24T04:01:40.951Z,18.40
2018-07-24T04:04:08.613Z,18.60
2018-07-24T04:06:36.289Z,18.80
2018-07-24T04:09:06.623Z,19.20
2018-07-24T04:11:34.279Z,19.60
2018-07-24T04:14:01.947Z,20.10
2018-07-24T04:16:29.599Z,20.60
2018-07-24T04:18:57.296Z,21.10
2018-07-24T04:21:24.962Z,21.60
2018-07-24T04:23:52.617Z,22.10
2018-07-24T04:26:20.295Z,22.60
2018-07-24T04:28:47.954Z,23.20
2018-07-24T04:31:15.660Z,23.90
2018-07-24T04:33:43.650Z,24.40
2018-07-24T04:36:11.387Z,24.90
2018-07-24T04:38:39.143Z,25.50
2018-07-24T04:41:06.990Z,26.20
2018-07-24T04:43:34.610Z,26.80
2018-07-24T04:46:02.365Z,27.40
2018-07-24T04:48:30.216Z,28.00
2018-07-24T04:50:57.887Z,28.70
2018-07-24T04:53:25.590Z,29.10
2018-07-24T04:55:53.219Z,29.50
2018-07-24T04:58:21.065Z,30.20
2018-07-24T05:00:48.719Z,30.30
2018-07-24T05:03:16.453Z,30.60
2018-07-24T05:05:44.120Z,31.30
2018-07-24T05:08:11.822Z,31.80
2018-07-24T05:10:39.466Z,32.60
2018-07-24T05:13:07.162Z,33.20
2018-07-24T05:15:34.854Z,34.10
2018-07-24T05:18:04.076Z,34.70
2018-07-24T05:20:31.763Z,35.10
2018-07-24T05:22:59.447Z,35.70
2018-07-24T05:25:27.111Z,36.40
2018-07-24T05:27:54.790Z,37.00
2018-07-24T05:30:22.458Z,37.40
2018-07-24T05:32:50.124Z,37.90
2018-07-24T05:35:17.859Z,38.70
2018-07-24T05:37:45.524Z,39.10
2018-07-24T05:40:13.242Z,39.60
2018-07-24T05:42:40.898Z,39.80
2018-07-24T05:45:08.598Z,40.20
2018-07-24T05:47:36.264Z,40.70
2018-07-24T05:50:03.981Z,41.00
2018-07-24T05:52:31.689Z,41.60
2018-07-24T05:54:59.497Z,41.90
2018-07-24T05:57:27.179Z,42.30
2018-07-24T05:59:55.036Z,42.60
2018-07-24T06:02:22.689Z,42.80
2018-07-24T06:04:50.362Z,43.10
2018-07-24T06:07:18.084Z,43.60
2018-07-24T06:09:46.043Z,44.20
2018-07-24T06:12:13.790Z,44.50
2018-07-24T06:14:41.561Z,45.10
